sensor_id;sensor_type;location;lat;lon;timestamp;pressure;altitude;pressure_sealevel;temperature;humidity
31195;BME280;17819;36.316;-93.164;2022-09-09T00:00:26;114490.28;;;-146.31;53.38
31195;BME280;17819;36.316;-93.164;2022-09-09T00:02:30;114490.28;;;-146.31;53.02
31195;BME280;17819;36.316;-93.164;2022-09-09T00:04:36;114490.28;;;-146.31;52.39
31195;BME280;17819;36.316;-93.164;2022-09-09T00:06:45;114490.28;;;-146.31;52.81
31195;BME280;17819;36.316;-93.164;2022-09-09T00:09:08;114490.28;;;-146.31;53.15
31195;BME280;17819;36.316;-93.164;2022-09-09T00:11:15;114490.28;;;-146.31;54.99
31195;BME280;17819;36.316;-93.164;2022-09-09T00:13:30;114490.28;;;-146.31;55.93
31195;BME280;17819;36.316;-93.164;2022-09-09T00:15:38;114490.28;;;-146.31;57.41
31195;BME280;17819;36.316;-93.164;2022-09-09T00:20:01;114490.28;;;-146.31;57.66
31195;BME280;17819;36.316;-93.164;2022-09-09T00:22:14;114490.28;;;-146.31;57.97
31195;BME280;17819;36.316;-93.164;2022-09-09T00:24:24;114490.28;;;-146.31;58.45
31195;BME280;17819;36.316;-93.164;2022-09-09T00:26:38;114490.28;;;-146.31;60.90
31195;BME280;17819;36.316;-93.164;2022-09-09T00:28:54;114490.28;;;-146.31;60.93
31195;BME280;17819;36.316;-93.164;2022-09-09T00:31:01;114490.28;;;-146.31;62.05
31195;BME280;17819;36.316;-93.164;2022-09-09T00:33:12;114490.28;;;-146.31;61.61
31195;BME280;17819;36.316;-93.164;2022-09-09T00:35:21;114490.28;;;-146.31;63.16
31195;BME280;17819;36.316;-93.164;2022-09-09T00:37:26;114490.28;;;-146.31;64.65
31195;BME280;17819;36.316;-93.164;2022-09-09T00:39:39;114490.28;;;-146.31;64.46
31195;BME280;17819;36.316;-93.164;2022-09-09T00:44:25;114490.28;;;-146.31;65.26
31195;BME280;17819;36.316;-93.164;2022-09-09T00:47:17;114490.28;;;-146.31;65.09
31195;BME280;17819;36.316;-93.164;2022-09-09T00:56:25;114490.28;;;-146.31;66.92
31195;BME280;17819;36.316;-93.164;2022-09-09T00:58:31;114490.28;;;-146.31;67.46
31195;BME280;17819;36.316;-93.164;2022-09-09T01:04:49;114490.28;;;-146.31;70.08
31195;BME280;17819;36.316;-93.164;2022-09-09T01:06:54;114490.28;;;-146.31;71.14
31195;BME280;17819;36.316;-93.164;2022-09-09T01:11:23;114490.28;;;-146.31;71.64
31195;BME280;17819;36.316;-93.164;2022-09-09T01:13:32;114490.28;;;-146.31;72.40
31195;BME280;17819;36.316;-93.164;2022-09-09T01:15:42;114490.28;;;-146.31;73.35
31195;BME280;17819;36.316;-93.164;2022-09-09T01:18:08;114490.28;;;-146.31;74.46
31195;BME280;17819;36.316;-93.164;2022-09-09T01:20:20;114490.28;;;-146.31;73.03
31195;BME280;17819;36.316;-93.164;2022-09-09T01:24:38;114490.28;;;-146.31;74.04
31195;BME280;17819;36.316;-93.164;2022-09-09T01:26:51;114490.28;;;-146.31;74.90
31195;BME280;17819;36.316;-93.164;2022-09-09T01:29:00;114490.28;;;-146.31;74.83
31195;BME280;17819;36.316;-93.164;2022-09-09T01:31:09;114490.28;;;-146.31;75.21
31195;BME280;17819;36.316;-93.164;2022-09-09T01:33:18;114490.28;;;-146.31;75.17
31195;BME280;17819;36.316;-93.164;2022-09-09T01:37:34;114490.28;;;-146.31;74.35
31195;BME280;17819;36.316;-93.164;2022-09-09T01:39:39;114490.28;;;-146.31;75.52
31195;BME280;17819;36.316;-93.164;2022-09-09T01:41:46;114490.28;;;-146.31;75.07
31195;BME280;17819;36.316;-93.164;2022-09-09T01:43:53;114490.28;;;-146.31;75.35
31195;BME280;17819;36.316;-93.164;2022-09-09T01:46:00;114490.28;;;-146.31;75.84
31195;BME280;17819;36.316;-93.164;2022-09-09T01:48:05;114490.28;;;-146.31;76.41
31195;BME280;17819;36.316;-93.164;2022-09-09T01:50:24;114490.28;;;-146.31;76.89
31195;BME280;17819;36.316;-93.164;2022-09-09T01:52:29;114490.28;;;-146.31;76.81
31195;BME280;17819;36.316;-93.164;2022-09-09T01:54:33;114490.28;;;-146.31;76.83
31195;BME280;17819;36.316;-93.164;2022-09-09T02:01:01;114490.28;;;-146.31;78.14
31195;BME280;17819;36.316;-93.164;2022-09-09T02:03:16;114490.28;;;-146.31;78.40
31195;BME280;17819;36.316;-93.164;2022-09-09T02:05:39;114490.28;;;-146.31;79.26
31195;BME280;17819;36.316;-93.164;2022-09-09T02:07:55;114490.28;;;-146.31;79.90
31195;BME280;17819;36.316;-93.164;2022-09-09T02:10:21;114490.28;;;-146.31;80.71
31195;BME280;17819;36.316;-93.164;2022-09-09T02:12:40;114490.28;;;-146.31;82.24
31195;BME280;17819;36.316;-93.164;2022-09-09T02:14:55;114490.28;;;-146.31;81.74
31195;BME280;17819;36.316;-93.164;2022-09-09T02:17:11;114490.28;;;-146.31;82.54
31195;BME280;17819;36.316;-93.164;2022-09-09T02:19:42;114490.28;;;-146.31;83.78
31195;BME280;17819;36.316;-93.164;2022-09-09T02:22:01;114490.28;;;-146.31;84.25
31195;BME280;17819;36.316;-93.164;2022-09-09T02:24:05;114490.28;;;-146.31;85.33
31195;BME280;17819;36.316;-93.164;2022-09-09T02:26:19;114490.28;;;-146.31;86.12
31195;BME280;17819;36.316;-93.164;2022-09-09T02:28:33;114490.28;;;-146.31;86.08
31195;BME280;17819;36.316;-93.164;2022-09-09T02:30:38;114490.28;;;-146.31;87.32
31195;BME280;17819;36.316;-93.164;2022-09-09T02:32:45;114490.28;;;-146.31;86.77
31195;BME280;17819;36.316;-93.164;2022-09-09T02:34:53;114490.28;;;-146.31;85.73
31195;BME280;17819;36.316;-93.164;2022-09-09T02:36:59;114490.28;;;-146.31;86.60
31195;BME280;17819;36.316;-93.164;2022-09-09T02:39:04;114490.28;;;-146.31;86.20
31195;BME280;17819;36.316;-93.164;2022-09-09T02:41:10;114490.28;;;-146.31;88.15
31195;BME280;17819;36.316;-93.164;2022-09-09T02:43:15;114490.28;;;-146.31;87.24
31195;BME280;17819;36.316;-93.164;2022-09-09T02:45:27;114490.28;;;-146.31;87.72
31195;BME280;17819;36.316;-93.164;2022-09-09T02:47:35;114490.28;;;-146.31;88.88
31195;BME280;17819;36.316;-93.164;2022-09-09T02:51:59;114490.28;;;-146.31;88.75
31195;BME280;17819;36.316;-93.164;2022-09-09T02:56:29;114490.28;;;-146.31;88.46
31195;BME280;17819;36.316;-93.164;2022-09-09T02:58:42;114490.28;;;-146.31;90.21
31195;BME280;17819;36.316;-93.164;2022-09-09T03:00:46;114490.28;;;-146.31;91.10
31195;BME280;17819;36.316;-93.164;2022-09-09T03:02:52;114490.28;;;-146.31;91.49
31195;BME280;17819;36.316;-93.164;2022-09-09T03:04:57;114490.28;;;-146.31;91.22
31195;BME280;17819;36.316;-93.164;2022-09-09T03:07:01;114490.28;;;-146.31;91.16
31195;BME280;17819;36.316;-93.164;2022-09-09T03:09:06;114490.28;;;-146.31;91.98
31195;BME280;17819;36.316;-93.164;2022-09-09T03:11:12;114490.28;;;-146.31;93.09
31195;BME280;17819;36.316;-93.164;2022-09-09T03:13:17;114490.28;;;-146.31;93.34
31195;BME280;17819;36.316;-93.164;2022-09-09T03:15:24;114490.28;;;-146.31;93.70
31195;BME280;17819;36.316;-93.164;2022-09-09T03:17:33;114490.28;;;-146.31;93.12
31195;BME280;17819;36.316;-93.164;2022-09-09T03:19:38;114490.28;;;-146.31;92.64
31195;BME280;17819;36.316;-93.164;2022-09-09T03:21:45;114490.28;;;-146.31;93.19
31195;BME280;17819;36.316;-93.164;2022-09-09T03:23:48;114490.28;;;-146.31;92.85
31195;BME280;17819;36.316;-93.164;2022-09-09T03:25:52;114490.28;;;-146.31;92.17
31195;BME280;17819;36.316;-93.164;2022-09-09T03:28:09;114490.28;;;-146.31;92.56
31195;BME280;17819;36.316;-93.164;2022-09-09T03:30:13;114490.28;;;-146.31;91.94
31195;BME280;17819;36.316;-93.164;2022-09-09T03:32:21;114490.28;;;-146.31;92.45
31195;BME280;17819;36.316;-93.164;2022-09-09T03:34:25;114490.28;;;-146.31;93.27
31195;BME280;17819;36.316;-93.164;2022-09-09T03:36:32;114490.28;;;-146.31;93.34
31195;BME280;17819;36.316;-93.164;2022-09-09T03:38:36;114490.28;;;-146.31;93.71
31195;BME280;17819;36.316;-93.164;2022-09-09T03:40:47;114490.28;;;-146.31;93.69
31195;BME280;17819;36.316;-93.164;2022-09-09T03:42:55;114490.28;;;-146.31;94.92
31195;BME280;17819;36.316;-93.164;2022-09-09T03:45:03;114490.28;;;-146.31;94.32
31195;BME280;17819;36.316;-93.164;2022-09-09T03:47:08;114490.28;;;-146.31;95.01
31195;BME280;17819;36.316;-93.164;2022-09-09T03:49:12;114490.28;;;-146.31;94.66
31195;BME280;17819;36.316;-93.164;2022-09-09T03:51:16;114490.28;;;-146.31;95.11
31195;BME280;17819;36.316;-93.164;2022-09-09T03:53:21;114490.28;;;-146.31;95.57
31195;BME280;17819;36.316;-93.164;2022-09-09T03:55:26;114490.28;;;-146.31;95.59
31195;BME280;17819;36.316;-93.164;2022-09-09T03:57:30;114490.28;;;-146.31;95.60
31195;BME280;17819;36.316;-93.164;2022-09-09T03:59:33;114490.28;;;-146.31;96.30
31195;BME280;17819;36.316;-93.164;2022-09-09T04:01:38;114490.28;;;-146.31;95.69
31195;BME280;17819;36.316;-93.164;2022-09-09T04:03:43;114490.28;;;-146.31;95.96
31195;BME280;17819;36.316;-93.164;2022-09-09T04:05:51;114490.28;;;-146.31;96.47
31195;BME280;17819;36.316;-93.164;2022-09-09T04:07:55;114490.28;;;-146.31;96.52
31195;BME280;17819;36.316;-93.164;2022-09-09T04:09:59;114490.28;;;-146.31;97.01
31195;BME280;17819;36.316;-93.164;2022-09-09T04:12:04;114490.28;;;-146.31;96.17
31195;BME280;17819;36.316;-93.164;2022-09-09T04:14:09;114490.28;;;-146.31;96.68
31195;BME280;17819;36.316;-93.164;2022-09-09T04:16:13;114490.28;;;-146.31;98.76
31195;BME280;17819;36.316;-93.164;2022-09-09T04:18:18;114490.28;;;-146.31;99.75
31195;BME280;17819;36.316;-93.164;2022-09-09T04:20:23;114490.28;;;-146.31;99.87
31195;BME280;17819;36.316;-93.164;2022-09-09T04:22:26;114490.28;;;-146.31;100.00
31195;BME280;17819;36.316;-93.164;2022-09-09T04:24:30;114490.28;;;-146.31;100.00
31195;BME280;17819;36.316;-93.164;2022-09-09T04:26:35;114490.28;;;-146.31;100.00
31195;BME280;17819;36.316;-93.164;2022-09-09T04:28:43;114490.28;;;-146.31;100.00
31195;BME280;17819;36.316;-93.164;2022-09-09T04:30:51;114490.28;;;-146.31;100.00
31195;BME280;17819;36.316;-93.164;2022-09-09T04:32:56;114490.28;;;-146.31;100.00
31195;BME280;17819;36.316;-93.164;2022-09-09T04:34:59;114490.28;;;-146.31;100.00
31195;BME280;17819;36.316;-93.164;2022-09-09T04:37:03;114490.28;;;-146.31;100.00
31195;BME280;17819;36.316;-93.164;2022-09-09T04:39:07;114490.28;;;-146.31;100.00
31195;BME280;17819;36.316;-93.164;2022-09-09T04:41:10;114490.28;;;-146.31;100.00
31195;BME280;17819;36.316;-93.164;2022-09-09T04:43:18;114490.28;;;-146.31;100.00
31195;BME280;17819;36.316;-93.164;2022-09-09T04:45:25;114490.28;;;-146.31;100.00
31195;BME280;17819;36.316;-93.164;2022-09-09T04:47:33;114490.28;;;-146.31;100.00
31195;BME280;17819;36.316;-93.164;2022-09-09T04:49:38;114490.28;;;-146.31;100.00
31195;BME280;17819;36.316;-93.164;2022-09-09T04:51:42;114490.28;;;-146.31;100.00
31195;BME280;17819;36.316;-93.164;2022-09-09T04:53:47;114490.28;;;-146.31;100.00
31195;BME280;17819;36.316;-93.164;2022-09-09T04:56:00;114490.28;;;-146.31;100.00
31195;BME280;17819;36.316;-93.164;2022-09-09T04:58:07;114490.28;;;-146.31;100.00
31195;BME280;17819;36.316;-93.164;2022-09-09T05:00:11;114490.28;;;-146.31;100.00
31195;BME280;17819;36.316;-93.164;2022-09-09T05:02:16;114490.28;;;-146.31;100.00
31195;BME280;17819;36.316;-93.164;2022-09-09T05:04:21;114490.28;;;-146.31;100.00
31195;BME280;17819;36.316;-93.164;2022-09-09T05:06:25;114490.28;;;-146.31;100.00
31195;BME280;17819;36.316;-93.164;2022-09-09T05:08:32;114490.28;;;-146.31;100.00
31195;BME280;17819;36.316;-93.164;2022-09-09T05:10:37;114490.28;;;-146.31;100.00
31195;BME280;17819;36.316;-93.164;2022-09-09T05:12:42;114490.28;;;-146.31;100.00
31195;BME280;17819;36.316;-93.164;2022-09-09T05:14:47;114490.28;;;-146.31;100.00
31195;BME280;17819;36.316;-93.164;2022-09-09T05:16:50;114490.28;;;-146.31;100.00
31195;BME280;17819;36.316;-93.164;2022-09-09T05:18:56;114490.28;;;-146.31;100.00
31195;BME280;17819;36.316;-93.164;2022-09-09T05:21:03;114490.28;;;-146.31;100.00
31195;BME280;17819;36.316;-93.164;2022-09-09T05:23:07;114490.28;;;-146.31;100.00
31195;BME280;17819;36.316;-93.164;2022-09-09T05:25:12;114490.28;;;-146.31;100.00
31195;BME280;17819;36.316;-93.164;2022-09-09T05:27:20;114490.28;;;-146.31;100.00
31195;BME280;17819;36.316;-93.164;2022-09-09T05:29:24;114490.28;;;-146.31;100.00
31195;BME280;17819;36.316;-93.164;2022-09-09T05:31:31;114490.28;;;-146.31;100.00
31195;BME280;17819;36.316;-93.164;2022-09-09T05:33:39;114490.28;;;-146.31;100.00
31195;BME280;17819;36.316;-93.164;2022-09-09T05:38:29;114490.28;;;-146.31;100.00
31195;BME280;17819;36.316;-93.164;2022-09-09T05:40:34;114490.28;;;-146.31;100.00
31195;BME280;17819;36.316;-93.164;2022-09-09T05:42:38;114490.28;;;-146.31;100.00
31195;BME280;17819;36.316;-93.164;2022-09-09T05:44:42;114490.28;;;-146.31;100.00
31195;BME280;17819;36.316;-93.164;2022-09-09T05:46:47;114490.28;;;-146.31;100.00
31195;BME280;17819;36.316;-93.164;2022-09-09T05:48:56;114490.28;;;-146.31;100.00
31195;BME280;17819;36.316;-93.164;2022-09-09T05:51:05;114490.28;;;-146.31;100.00
31195;BME280;17819;36.316;-93.164;2022-09-09T05:53:13;114490.28;;;-146.31;100.00
31195;BME280;17819;36.316;-93.164;2022-09-09T05:55:16;114490.28;;;-146.31;100.00
31195;BME280;17819;36.316;-93.164;2022-09-09T05:57:21;114490.28;;;-146.31;100.00
31195;BME280;17819;36.316;-93.164;2022-09-09T05:59:29;114490.28;;;-146.31;100.00
31195;BME280;17819;36.316;-93.164;2022-09-09T06:01:36;114490.28;;;-146.31;100.00
31195;BME280;17819;36.316;-93.164;2022-09-09T06:03:58;114490.28;;;-146.31;100.00
31195;BME280;17819;36.316;-93.164;2022-09-09T06:06:05;114490.28;;;-146.31;100.00
31195;BME280;17819;36.316;-93.164;2022-09-09T06:08:10;114490.28;;;-146.31;100.00
31195;BME280;17819;36.316;-93.164;2022-09-09T06:10:14;114490.28;;;-146.31;100.00
31195;BME280;17819;36.316;-93.164;2022-09-09T06:12:18;114490.28;;;-146.31;100.00
31195;BME280;17819;36.316;-93.164;2022-09-09T06:14:21;114490.28;;;-146.31;100.00
31195;BME280;17819;36.316;-93.164;2022-09-09T06:16:27;114490.28;;;-146.31;100.00
31195;BME280;17819;36.316;-93.164;2022-09-09T06:18:33;114490.28;;;-146.31;100.00
31195;BME280;17819;36.316;-93.164;2022-09-09T06:20:36;114490.28;;;-146.31;100.00
31195;BME280;17819;36.316;-93.164;2022-09-09T06:22:41;114490.28;;;-146.31;100.00
31195;BME280;17819;36.316;-93.164;2022-09-09T06:24:45;114490.28;;;-146.31;100.00
31195;BME280;17819;36.316;-93.164;2022-09-09T06:26:49;114490.28;;;-146.31;100.00
31195;BME280;17819;36.316;-93.164;2022-09-09T06:28:57;114490.28;;;-146.31;100.00
31195;BME280;17819;36.316;-93.164;2022-09-09T06:31:02;114490.28;;;-146.31;100.00
31195;BME280;17819;36.316;-93.164;2022-09-09T06:33:07;114490.28;;;-146.31;100.00
31195;BME280;17819;36.316;-93.164;2022-09-09T06:35:11;114490.28;;;-146.31;100.00
31195;BME280;17819;36.316;-93.164;2022-09-09T06:37:39;114490.28;;;-146.31;100.00
31195;BME280;17819;36.316;-93.164;2022-09-09T06:40:00;114490.28;;;-146.31;100.00
31195;BME280;17819;36.316;-93.164;2022-09-09T06:42:06;114490.28;;;-146.31;100.00
31195;BME280;17819;36.316;-93.164;2022-09-09T06:44:23;114490.28;;;-146.31;100.00
31195;BME280;17819;36.316;-93.164;2022-09-09T06:46:34;114490.28;;;-146.31;100.00
31195;BME280;17819;36.316;-93.164;2022-09-09T06:48:40;114490.28;;;-146.31;100.00
31195;BME280;17819;36.316;-93.164;2022-09-09T06:50:45;114490.28;;;-146.31;100.00
31195;BME280;17819;36.316;-93.164;2022-09-09T06:52:49;114490.28;;;-146.31;100.00
31195;BME280;17819;36.316;-93.164;2022-09-09T06:54:54;114490.28;;;-146.31;100.00
31195;BME280;17819;36.316;-93.164;2022-09-09T06:56:58;114490.28;;;-146.31;100.00
31195;BME280;17819;36.316;-93.164;2022-09-09T06:59:22;114490.28;;;-146.31;100.00
31195;BME280;17819;36.316;-93.164;2022-09-09T07:01:29;114490.28;;;-146.31;100.00
31195;BME280;17819;36.316;-93.164;2022-09-09T07:03:36;114490.28;;;-146.31;100.00
31195;BME280;17819;36.316;-93.164;2022-09-09T07:05:40;114490.28;;;-146.31;100.00
31195;BME280;17819;36.316;-93.164;2022-09-09T07:07:43;114490.28;;;-146.31;100.00
31195;BME280;17819;36.316;-93.164;2022-09-09T07:09:49;114490.28;;;-146.31;100.00
31195;BME280;17819;36.316;-93.164;2022-09-09T07:11:55;114490.28;;;-146.31;100.00
31195;BME280;17819;36.316;-93.164;2022-09-09T07:14:07;114490.28;;;-146.31;100.00
31195;BME280;17819;36.316;-93.164;2022-09-09T07:16:12;114490.28;;;-146.31;100.00
31195;BME280;17819;36.316;-93.164;2022-09-09T07:18:16;114490.28;;;-146.31;100.00
31195;BME280;17819;36.316;-93.164;2022-09-09T07:20:19;114490.28;;;-146.31;100.00
31195;BME280;17819;36.316;-93.164;2022-09-09T07:22:24;114490.28;;;-146.31;100.00
31195;BME280;17819;36.316;-93.164;2022-09-09T07:24:28;114490.28;;;-146.31;100.00
31195;BME280;17819;36.316;-93.164;2022-09-09T07:26:33;114490.28;;;-146.31;100.00
31195;BME280;17819;36.316;-93.164;2022-09-09T07:28:37;114490.28;;;-146.31;100.00
31195;BME280;17819;36.316;-93.164;2022-09-09T07:30:41;114490.28;;;-146.31;100.00
31195;BME280;17819;36.316;-93.164;2022-09-09T07:32:45;114490.28;;;-146.31;100.00
31195;BME280;17819;36.316;-93.164;2022-09-09T07:34:49;114490.28;;;-146.31;100.00
31195;BME280;17819;36.316;-93.164;2022-09-09T07:36:53;114490.28;;;-146.31;100.00
31195;BME280;17819;36.316;-93.164;2022-09-09T07:39:02;114490.28;;;-146.31;100.00
31195;BME280;17819;36.316;-93.164;2022-09-09T07:41:08;114490.28;;;-146.31;100.00
31195;BME280;17819;36.316;-93.164;2022-09-09T07:43:19;114490.28;;;-146.31;100.00
31195;BME280;17819;36.316;-93.164;2022-09-09T07:45:22;114490.28;;;-146.31;100.00
31195;BME280;17819;36.316;-93.164;2022-09-09T07:47:26;114490.28;;;-146.31;100.00
31195;BME280;17819;36.316;-93.164;2022-09-09T07:49:30;114490.28;;;-146.31;100.00
31195;BME280;17819;36.316;-93.164;2022-09-09T07:51:40;114490.28;;;-146.31;100.00
31195;BME280;17819;36.316;-93.164;2022-09-09T07:53:46;114490.28;;;-146.31;100.00
31195;BME280;17819;36.316;-93.164;2022-09-09T07:55:50;114490.28;;;-146.31;100.00
31195;BME280;17819;36.316;-93.164;2022-09-09T07:57:55;114490.28;;;-146.31;100.00
31195;BME280;17819;36.316;-93.164;2022-09-09T07:59:59;114490.28;;;-146.31;100.00
31195;BME280;17819;36.316;-93.164;2022-09-09T08:02:12;114490.28;;;-146.31;100.00
31195;BME280;17819;36.316;-93.164;2022-09-09T08:04:17;114490.28;;;-146.31;100.00
31195;BME280;17819;36.316;-93.164;2022-09-09T08:06:22;114490.28;;;-146.31;100.00
31195;BME280;17819;36.316;-93.164;2022-09-09T08:08:27;114490.28;;;-146.31;100.00
31195;BME280;17819;36.316;-93.164;2022-09-09T08:10:31;114490.28;;;-146.31;100.00
31195;BME280;17819;36.316;-93.164;2022-09-09T08:12:35;114490.28;;;-146.31;100.00
31195;BME280;17819;36.316;-93.164;2022-09-09T08:14:40;114490.28;;;-146.31;100.00
31195;BME280;17819;36.316;-93.164;2022-09-09T08:16:45;114490.28;;;-146.31;100.00
31195;BME280;17819;36.316;-93.164;2022-09-09T08:18:52;114490.28;;;-146.31;100.00
31195;BME280;17819;36.316;-93.164;2022-09-09T08:20:57;114490.28;;;-146.31;100.00
31195;BME280;17819;36.316;-93.164;2022-09-09T08:23:01;114490.28;;;-146.31;100.00
31195;BME280;17819;36.316;-93.164;2022-09-09T08:25:04;114490.28;;;-146.31;100.00
31195;BME280;17819;36.316;-93.164;2022-09-09T08:27:10;114490.28;;;-146.31;100.00
31195;BME280;17819;36.316;-93.164;2022-09-09T08:29:16;114490.28;;;-146.31;100.00
31195;BME280;17819;36.316;-93.164;2022-09-09T08:31:24;114490.28;;;-146.31;100.00
31195;BME280;17819;36.316;-93.164;2022-09-09T08:33:29;114490.28;;;-146.31;100.00
31195;BME280;17819;36.316;-93.164;2022-09-09T08:35:32;114490.28;;;-146.31;100.00
31195;BME280;17819;36.316;-93.164;2022-09-09T08:37:36;114490.28;;;-146.31;100.00
31195;BME280;17819;36.316;-93.164;2022-09-09T08:39:40;114490.28;;;-146.31;100.00
31195;BME280;17819;36.316;-93.164;2022-09-09T08:44:14;114490.28;;;-146.31;100.00
31195;BME280;17819;36.316;-93.164;2022-09-09T08:46:26;114490.28;;;-146.31;100.00
31195;BME280;17819;36.316;-93.164;2022-09-09T08:50:39;114490.28;;;-146.31;100.00
31195;BME280;17819;36.316;-93.164;2022-09-09T08:57:18;114490.28;;;-146.31;100.00
31195;BME280;17819;36.316;-93.164;2022-09-09T08:59:23;114490.28;;;-146.31;100.00
31195;BME280;17819;36.316;-93.164;2022-09-09T09:03:44;114490.28;;;-146.31;100.00
31195;BME280;17819;36.316;-93.164;2022-09-09T09:12:44;114490.28;;;-146.31;100.00
31195;BME280;17819;36.316;-93.164;2022-09-09T09:14:52;114490.28;;;-146.31;100.00
31195;BME280;17819;36.316;-93.164;2022-09-09T09:19:02;114490.28;;;-146.31;100.00
31195;BME280;17819;36.316;-93.164;2022-09-09T09:23:55;114490.28;;;-146.31;100.00
31195;BME280;17819;36.316;-93.164;2022-09-09T09:26:05;114490.28;;;-146.31;100.00
31195;BME280;17819;36.316;-93.164;2022-09-09T09:28:16;114490.28;;;-146.31;100.00
31195;BME280;17819;36.316;-93.164;2022-09-09T09:30:25;114490.28;;;-146.31;100.00
31195;BME280;17819;36.316;-93.164;2022-09-09T09:32:38;114490.28;;;-146.31;100.00
31195;BME280;17819;36.316;-93.164;2022-09-09T09:34:49;114490.28;;;-146.31;100.00
31195;BME280;17819;36.316;-93.164;2022-09-09T09:36:56;114490.28;;;-146.31;100.00
31195;BME280;17819;36.316;-93.164;2022-09-09T09:39:04;114490.28;;;-146.31;100.00
31195;BME280;17819;36.316;-93.164;2022-09-09T09:41:38;114490.28;;;-146.31;100.00
31195;BME280;17819;36.316;-93.164;2022-09-09T09:43:52;114490.28;;;-146.31;100.00
31195;BME280;17819;36.316;-93.164;2022-09-09T09:45:58;114490.28;;;-146.31;100.00
31195;BME280;17819;36.316;-93.164;2022-09-09T09:48:18;114490.28;;;-146.31;100.00
31195;BME280;17819;36.316;-93.164;2022-09-09T09:50:22;114490.28;;;-146.31;100.00
31195;BME280;17819;36.316;-93.164;2022-09-09T09:52:27;114490.28;;;-146.31;100.00
31195;BME280;17819;36.316;-93.164;2022-09-09T09:54:38;114490.28;;;-146.31;100.00
31195;BME280;17819;36.316;-93.164;2022-09-09T09:56:42;114490.28;;;-146.31;100.00
31195;BME280;17819;36.316;-93.164;2022-09-09T09:58:49;114490.28;;;-146.31;100.00
31195;BME280;17819;36.316;-93.164;2022-09-09T10:00:57;114490.28;;;-146.31;100.00
31195;BME280;17819;36.316;-93.164;2022-09-09T10:03:12;114490.28;;;-146.31;100.00
31195;BME280;17819;36.316;-93.164;2022-09-09T10:05:25;114490.28;;;-146.31;100.00
31195;BME280;17819;36.316;-93.164;2022-09-09T10:07:40;114490.28;;;-146.31;100.00
31195;BME280;17819;36.316;-93.164;2022-09-09T10:09:43;114490.28;;;-146.31;100.00
31195;BME280;17819;36.316;-93.164;2022-09-09T10:11:54;114490.28;;;-146.31;100.00
31195;BME280;17819;36.316;-93.164;2022-09-09T10:14:43;114490.28;;;-146.31;100.00
31195;BME280;17819;36.316;-93.164;2022-09-09T10:19:03;114490.28;;;-146.31;100.00
31195;BME280;17819;36.316;-93.164;2022-09-09T10:30:53;114490.28;;;-146.31;100.00
31195;BME280;17819;36.316;-93.164;2022-09-09T10:39:38;114490.28;;;-146.31;100.00
31195;BME280;17819;36.316;-93.164;2022-09-09T10:41:50;114490.28;;;-146.31;100.00
31195;BME280;17819;36.316;-93.164;2022-09-09T10:52:27;114490.28;;;-146.31;100.00
31195;BME280;17819;36.316;-93.164;2022-09-09T10:54:58;114490.28;;;-146.31;100.00
31195;BME280;17819;36.316;-93.164;2022-09-09T10:57:25;114490.28;;;-146.31;100.00
31195;BME280;17819;36.316;-93.164;2022-09-09T10:59:31;114490.28;;;-146.31;100.00
31195;BME280;17819;36.316;-93.164;2022-09-09T11:01:38;114490.28;;;-146.31;100.00
31195;BME280;17819;36.316;-93.164;2022-09-09T11:03:43;114490.28;;;-146.31;100.00
31195;BME280;17819;36.316;-93.164;2022-09-09T11:06:01;114490.28;;;-146.31;100.00
31195;BME280;17819;36.316;-93.164;2022-09-09T11:08:12;114490.28;;;-146.31;100.00
31195;BME280;17819;36.316;-93.164;2022-09-09T11:10:27;114490.28;;;-146.31;100.00
31195;BME280;17819;36.316;-93.164;2022-09-09T11:12:33;114490.28;;;-146.31;100.00
31195;BME280;17819;36.316;-93.164;2022-09-09T11:14:45;114490.28;;;-146.31;100.00
31195;BME280;17819;36.316;-93.164;2022-09-09T11:16:58;114490.28;;;-146.31;100.00
31195;BME280;17819;36.316;-93.164;2022-09-09T11:19:04;114490.28;;;-146.31;100.00
31195;BME280;17819;36.316;-93.164;2022-09-09T11:21:34;114490.28;;;-146.31;100.00
31195;BME280;17819;36.316;-93.164;2022-09-09T11:23:40;114490.28;;;-146.31;100.00
31195;BME280;17819;36.316;-93.164;2022-09-09T11:25:53;114490.28;;;-146.31;100.00
31195;BME280;17819;36.316;-93.164;2022-09-09T11:30:31;114490.28;;;-146.31;100.00
31195;BME280;17819;36.316;-93.164;2022-09-09T11:39:38;114490.28;;;-146.31;100.00
31195;BME280;17819;36.316;-93.164;2022-09-09T11:41:49;114378.13;;;-146.31;100.00
31195;BME280;17819;36.316;-93.164;2022-09-09T11:43:55;114129.78;;;-146.31;100.00
31195;BME280;17819;36.316;-93.164;2022-09-09T11:46:02;112531.97;;;-146.31;100.00
31195;BME280;17819;36.316;-93.164;2022-09-09T11:48:21;111381.06;;;-146.31;100.00
31195;BME280;17819;36.316;-93.164;2022-09-09T11:52:36;110766.69;;;-146.31;100.00
31195;BME280;17819;36.316;-93.164;2022-09-09T11:54:46;109698.28;;;-146.31;100.00
31195;BME280;17819;36.316;-93.164;2022-09-09T11:56:52;109170.19;;;-146.31;100.00
31195;BME280;17819;36.316;-93.164;2022-09-09T11:59:03;107234.44;;;-146.31;100.00
31195;BME280;17819;36.316;-93.164;2022-09-09T12:01:15;106508.78;;;-146.31;100.00
31195;BME280;17819;36.316;-93.164;2022-09-09T12:05:42;104094.81;;;-146.31;100.00
31195;BME280;17819;36.316;-93.164;2022-09-09T12:07:56;103399.66;;;-146.31;100.00
31195;BME280;17819;36.316;-93.164;2022-09-09T12:10:19;100492.50;;;-146.31;100.00